Time;durP1;ratioP1;P1;durP2;ratioP2;P2;SDS_P1;SDS_P2;PMS_P1;PMS_P2;Temp;Humidity;BMP_temperature;BMP_pressure;BME280_temperature;BME280_humidity;BME280_pressure;Samples;Min_cycle;Max_cycle;Signal;HPM_P1;HPM_P2
2022/09/07 00:01:58;;;;;;;7.38;6.68;;;22.80;99.90;;;;;;6272979;27;84397;-63
2022/09/07 00:05:00;;;;;;;7.35;6.75;;;22.80;99.90;;;;;;6262928;27;83345;-63
2022/09/07 00:08:03;;;;;;;7.28;6.68;;;22.80;99.90;;;;;;6261469;27;84024;-64
2022/09/07 00:11:07;;;;;;;7.30;6.70;;;22.80;99.90;;;;;;6281436;27;83296;-64
2022/09/07 00:14:09;;;;;;;7.53;6.90;;;22.80;99.90;;;;;;6260952;27;84026;-64
2022/09/07 00:17:12;;;;;;;8.13;7.32;;;22.80;99.90;;;;;;6261292;27;84470;-64
2022/09/07 00:20:14;;;;;;;8.13;7.40;;;22.80;99.90;;;;;;6266494;27;84990;-63
2022/09/07 00:23:16;;;;;;;7.20;6.50;;;22.70;99.90;;;;;;6286351;27;84236;-64
2022/09/07 00:26:20;;;;;;;6.88;6.28;;;22.70;99.90;;;;;;6265174;27;83976;-64
2022/09/07 00:29:22;;;;;;;7.97;7.28;;;22.80;99.90;;;;;;6270672;27;84048;-64
2022/09/07 00:32:25;;;;;;;7.65;7.05;;;22.70;99.90;;;;;;6276448;27;84114;-64
2022/09/07 00:35:28;;;;;;;7.25;6.65;;;22.70;99.90;;;;;;6264203;27;85371;-64
2022/09/07 00:38:30;;;;;;;7.40;6.70;;;22.70;99.90;;;;;;6260828;27;83755;-64
2022/09/07 00:41:32;;;;;;;6.88;6.32;;;22.70;99.90;;;;;;6275535;27;83274;-64
2022/09/07 00:45:09;;;;;;;8.10;7.05;;;22.70;99.90;;;;;;6269580;27;83960;-64
2022/09/07 00:48:17;;;;;;;7.20;6.50;;;22.70;99.90;;;;;;6273203;27;84047;-64
2022/09/07 00:51:24;;;;;;;7.55;6.85;;;22.70;99.90;;;;;;6277686;27;85329;-65
2022/09/07 00:54:30;;;;;;;7.95;7.25;;;22.70;99.90;;;;;;6281340;27;84049;-65
2022/09/07 00:57:33;;;;;;;7.60;7.00;;;22.70;99.90;;;;;;6260461;27;83912;-65
2022/09/07 01:00:36;;;;;;;7.90;7.15;;;22.70;99.90;;;;;;6273472;27;82929;-66
2022/09/07 01:03:43;;;;;;;7.05;6.45;;;22.70;99.90;;;;;;6262196;27;84362;-65
2022/09/07 01:06:46;;;;;;;7.90;7.00;;;22.70;99.90;;;;;;6272449;27;83751;-66
2022/09/07 01:09:49;;;;;;;7.80;7.20;;;22.70;99.90;;;;;;6273845;27;83278;-63
2022/09/07 01:12:51;;;;;;;8.02;7.25;;;22.70;99.90;;;;;;6273712;27;83287;-63
2022/09/07 01:15:59;;;;;;;7.28;6.57;;;22.70;99.90;;;;;;6268556;27;83729;-63
2022/09/07 01:19:21;;;;;;;7.20;6.60;;;22.70;99.90;;;;;;6276601;27;85269;-63
2022/09/07 01:22:56;;;;;;;7.55;6.80;;;22.70;99.90;;;;;;6275829;27;84022;-63
2022/09/07 01:26:20;;;;;;;7.43;6.72;;;22.70;99.90;;;;;;6277795;27;84075;-63
2022/09/07 01:29:29;;;;;;;7.85;7.15;;;22.70;99.90;;;;;;6272408;27;84429;-63
2022/09/07 01:32:44;;;;;;;7.88;7.18;;;22.70;99.90;;;;;;6276934;27;83984;-63
2022/09/07 01:35:56;;;;;;;7.63;7.03;;;22.70;99.90;;;;;;6278761;27;83964;-63
2022/09/07 01:39:02;;;;;;;7.05;6.45;;;22.70;99.90;;;;;;6265362;27;84145;-63
2022/09/07 01:42:10;;;;;;;7.05;6.45;;;22.70;99.90;;;;;;6277000;27;84101;-64
2022/09/07 01:45:16;;;;;;;7.88;7.13;;;22.70;99.90;;;;;;6278038;27;83490;-63
2022/09/07 01:48:20;;;;;;;8.02;7.22;;;22.70;99.90;;;;;;6274566;27;84543;-63
2022/09/07 01:51:26;;;;;;;7.75;7.00;;;22.70;99.90;;;;;;6280902;27;84400;-63
2022/09/07 01:54:32;;;;;;;7.28;6.57;;;22.70;99.90;;;;;;6264671;27;85022;-63
2022/09/07 01:57:42;;;;;;;7.80;7.10;;;22.70;99.90;;;;;;6263912;27;82953;-63
2022/09/07 02:00:51;;;;;;;9.13;7.57;;;22.70;99.90;;;;;;6278115;27;84041;-63
2022/09/07 02:03:59;;;;;;;6.78;6.28;;;22.70;99.90;;;;;;6280936;27;83985;-62
2022/09/07 02:07:08;;;;;;;7.88;7.10;;;22.70;99.90;;;;;;6283511;27;83964;-63
2022/09/07 02:10:15;;;;;;;7.68;6.93;;;22.70;99.90;;;;;;6283398;27;84082;-63
2022/09/07 02:13:23;;;;;;;7.40;6.80;;;22.70;99.90;;;;;;6275402;27;83786;-63
2022/09/07 02:16:33;;;;;;;8.30;7.50;;;22.70;99.90;;;;;;6268140;27;83316;-63
2022/09/07 02:19:40;;;;;;;7.43;6.82;;;22.70;99.90;;;;;;6276157;27;83966;-63
2022/09/07 02:22:48;;;;;;;7.75;7.10;;;22.70;99.90;;;;;;6279979;27;83957;-62
2022/09/07 02:25:54;;;;;;;7.07;6.47;;;22.70;99.90;;;;;;6279063;27;85007;-63
2022/09/07 02:28:56;;;;;;;6.75;6.15;;;22.70;99.90;;;;;;6276622;27;84071;-62
2022/09/07 02:32:00;;;;;;;6.05;5.50;;;22.70;99.90;;;;;;6270745;27;84183;-63
2022/09/07 02:35:02;;;;;;;7.75;7.15;;;22.70;99.90;;;;;;6265028;27;83984;-63
2022/09/07 02:38:06;;;;;;;9.15;7.55;;;22.70;99.90;;;;;;6282099;27;84082;-63
2022/09/07 02:41:29;;;;;;;8.23;7.43;;;22.60;99.90;;;;;;6274694;27;84553;-63
2022/09/07 02:44:35;;;;;;;7.40;6.75;;;22.60;99.90;;;;;;6271924;27;84024;-63
2022/09/07 02:47:49;;;;;;;8.10;7.40;;;22.60;99.90;;;;;;6267128;27;82535;-63
2022/09/07 02:51:02;;;;;;;7.93;7.28;;;22.60;99.90;;;;;;6274593;27;84166;-63
2022/09/07 02:54:28;;;;;;;7.72;7.13;;;22.70;99.90;;;;;;6280658;27;84091;-63
2022/09/07 02:57:41;;;;;;;8.35;7.65;;;22.60;99.90;;;;;;6262819;27;84999;-63
2022/09/07 03:00:50;;;;;;;7.63;6.93;;;22.60;99.90;;;;;;6266474;27;84132;-63
2022/09/07 03:04:02;;;;;;;7.25;6.57;;;22.60;99.90;;;;;;6270708;27;84156;-63
2022/09/07 03:07:10;;;;;;;6.40;5.80;;;22.60;99.90;;;;;;6272791;27;84300;-63
2022/09/07 03:10:14;;;;;;;7.50;6.90;;;22.60;99.90;;;;;;6276620;27;83989;-63
2022/09/07 03:13:24;;;;;;;7.80;7.20;;;22.60;99.90;;;;;;6271347;27;84329;-63
2022/09/07 03:16:26;;;;;;;8.20;7.50;;;22.60;99.90;;;;;;6262667;27;84034;-63
2022/09/07 03:19:29;;;;;;;8.32;7.53;;;22.60;99.90;;;;;;6262146;27;83251;-63
2022/09/07 03:22:32;;;;;;;8.02;7.32;;;22.60;99.90;;;;;;6275571;27;85269;-63
2022/09/07 03:25:34;;;;;;;8.20;7.40;;;22.60;99.90;;;;;;6272176;27;84028;-62
2022/09/07 03:28:36;;;;;;;8.63;7.78;;;22.60;99.90;;;;;;6284566;27;84957;-62
2022/09/07 03:31:38;;;;;;;7.82;7.10;;;22.60;99.90;;;;;;6263173;27;84359;-63
2022/09/07 03:34:42;;;;;;;8.07;7.38;;;22.60;99.90;;;;;;6261424;27;84149;-63
2022/09/07 03:37:44;;;;;;;7.68;6.97;;;22.60;99.90;;;;;;6280195;27;83262;-62
2022/09/07 03:40:46;;;;;;;7.72;7.13;;;22.60;99.90;;;;;;6278200;27;84024;-62
2022/09/07 03:43:48;;;;;;;6.82;6.28;;;22.60;99.90;;;;;;6269651;27;82960;-62
2022/09/07 03:46:50;;;;;;;7.75;7.05;;;22.60;99.90;;;;;;6273958;27;84068;-63
2022/09/07 03:49:53;;;;;;;8.70;7.93;;;22.60;99.90;;;;;;6267663;27;83566;-62
2022/09/07 03:52:55;;;;;;;8.00;7.38;;;22.60;99.90;;;;;;6275282;27;83919;-62
2022/09/07 03:55:58;;;;;;;7.65;6.95;;;22.60;99.90;;;;;;6270835;27;83980;-63
2022/09/07 03:59:00;;;;;;;8.43;7.63;;;22.60;99.90;;;;;;6279035;27;84993;-63
2022/09/07 04:02:03;;;;;;;7.90;7.22;;;22.60;99.90;;;;;;6273740;27;86093;-63
2022/09/07 04:05:07;;;;;;;8.30;7.50;;;22.60;99.90;;;;;;6271045;27;83699;-62
2022/09/07 04:08:09;;;;;;;7.90;7.30;;;22.60;99.90;;;;;;6266866;27;84014;-62
2022/09/07 04:11:13;;;;;;;8.40;7.68;;;22.60;99.90;;;;;;6274024;27;84317;-63
2022/09/07 04:14:16;;;;;;;7.82;7.22;;;22.60;99.90;;;;;;6262664;27;84349;-63
2022/09/07 04:17:18;;;;;;;7.20;6.50;;;22.60;99.90;;;;;;6279544;27;83989;-63
2022/09/07 04:20:21;;;;;;;6.30;5.80;;;22.60;99.90;;;;;;6285660;27;83321;-63
2022/09/07 04:23:23;;;;;;;7.07;6.55;;;22.60;99.90;;;;;;6276451;27;84039;-63
2022/09/07 04:26:28;;;;;;;7.57;6.93;;;22.60;99.90;;;;;;6280003;27;84414;-63
2022/09/07 04:29:30;;;;;;;8.02;7.25;;;22.60;99.90;;;;;;6285759;27;83993;-62
2022/09/07 04:32:31;;;;;;;8.63;7.93;;;22.60;99.90;;;;;;6265919;27;84073;-63
2022/09/07 04:35:38;;;;;;;9.55;7.95;;;22.60;99.90;;;;;;6271131;27;84021;-62
2022/09/07 04:38:40;;;;;;;9.07;8.23;;;22.60;99.90;;;;;;6271673;27;84011;-63
2022/09/07 04:41:42;;;;;;;8.60;7.80;;;22.60;99.90;;;;;;6281996;27;84044;-63
2022/09/07 04:44:44;;;;;;;8.80;8.00;;;22.60;99.90;;;;;;6260935;27;85081;-62
2022/09/07 04:47:47;;;;;;;8.05;7.40;;;22.60;99.90;;;;;;6283089;27;84349;-63
2022/09/07 04:50:51;;;;;;;9.00;8.20;;;22.60;99.90;;;;;;6275656;27;83957;-63
2022/09/07 04:53:55;;;;;;;8.52;7.82;;;22.60;99.90;;;;;;6273268;27;83930;-63
2022/09/07 04:56:57;;;;;;;9.15;8.45;;;22.60;99.90;;;;;;6260357;27;84979;-62
2022/09/07 05:00:00;;;;;;;8.80;8.00;;;22.60;99.90;;;;;;6262026;27;85074;-63
2022/09/07 05:03:02;;;;;;;9.10;8.30;;;22.60;99.90;;;;;;6283296;27;84317;-62
2022/09/07 05:06:06;;;;;;;9.20;8.38;;;22.50;99.90;;;;;;6272610;27;84328;-62
2022/09/07 05:09:08;;;;;;;9.07;8.20;;;22.60;99.90;;;;;;6273675;27;84166;-62
2022/09/07 05:12:10;;;;;;;8.70;7.90;;;22.60;99.90;;;;;;6273101;27;84351;-62
2022/09/07 05:15:12;;;;;;;8.77;7.97;;;22.60;99.90;;;;;;6259742;27;84021;-62
2022/09/07 05:18:14;;;;;;;8.52;7.72;;;22.60;99.90;;;;;;6276890;27;84379;-62
2022/09/07 05:21:19;;;;;;;9.10;8.20;;;22.60;99.90;;;;;;6277334;27;83290;-62
2022/09/07 05:24:21;;;;;;;8.95;8.13;;;22.60;99.90;;;;;;6278868;27;83350;-63
2022/09/07 05:27:23;;;;;;;8.52;7.82;;;22.60;99.90;;;;;;6262173;27;84267;-63
2022/09/07 05:30:25;;;;;;;9.00;8.20;;;22.60;99.90;;;;;;6257854;27;85390;-62
2022/09/07 05:33:27;;;;;;;8.10;7.50;;;22.60;99.90;;;;;;6264442;27;84322;-63
2022/09/07 05:36:31;;;;;;;8.10;7.40;;;22.60;99.90;;;;;;6268684;27;82924;-63
2022/09/07 05:39:33;;;;;;;9.40;7.55;;;22.60;99.90;;;;;;6261252;27;84021;-63
2022/09/07 05:42:35;;;;;;;8.38;7.68;;;22.60;99.90;;;;;;6270851;27;84326;-63
2022/09/07 05:45:37;;;;;;;8.77;7.90;;;22.60;99.90;;;;;;6272077;27;84128;-62
2022/09/07 05:48:39;;;;;;;8.48;7.55;;;22.60;99.90;;;;;;6281935;27;84045;-62
2022/09/07 05:51:43;;;;;;;8.32;7.53;;;22.60;99.90;;;;;;6262372;27;83518;-63
2022/09/07 05:54:46;;;;;;;8.10;7.50;;;22.60;99.90;;;;;;6278490;27;84089;-63
2022/09/07 05:57:47;;;;;;;7.97;7.28;;;22.60;99.90;;;;;;6263910;27;83117;-62
2022/09/07 06:00:49;;;;;;;9.07;7.70;;;22.60;99.90;;;;;;6261856;27;85255;-63
2022/09/07 06:03:51;;;;;;;9.15;8.27;;;22.60;99.90;;;;;;6267967;27;84122;-63
2022/09/07 06:06:55;;;;;;;8.30;7.53;;;22.60;99.90;;;;;;6281588;27;84089;-63
2022/09/07 06:09:57;;;;;;;8.50;7.70;;;22.60;99.90;;;;;;6271591;27;84077;-63
2022/09/07 06:12:59;;;;;;;8.57;7.78;;;22.60;99.90;;;;;;6269629;27;83942;-62
2022/09/07 06:16:01;;;;;;;7.47;6.88;;;22.60;99.90;;;;;;6282351;27;83945;-62
2022/09/07 06:19:05;;;;;;;8.20;7.50;;;22.60;99.90;;;;;;6268921;27;83827;-62
2022/09/07 06:22:09;;;;;;;7.95;7.25;;;22.60;99.90;;;;;;6268825;27;83341;-62
2022/09/07 06:25:11;;;;;;;8.30;7.60;;;22.60;99.90;;;;;;6272908;27;84122;-63
2022/09/07 06:28:13;;;;;;;8.25;7.55;;;22.60;99.90;;;;;;6272228;27;84123;-63
2022/09/07 06:31:16;;;;;;;8.30;7.60;;;22.60;99.90;;;;;;6258230;27;85037;-63
2022/09/07 06:34:18;;;;;;;7.72;7.13;;;22.60;99.90;;;;;;6274213;27;83060;-63
2022/09/07 06:37:21;;;;;;;7.63;7.03;;;22.60;99.90;;;;;;6261147;27;84070;-62
2022/09/07 06:40:23;;;;;;;8.00;7.30;;;22.60;99.90;;;;;;6271545;27;83968;-63
2022/09/07 06:43:25;;;;;;;8.13;7.43;;;22.60;99.90;;;;;;6272079;27;84379;-62
2022/09/07 06:46:27;;;;;;;8.13;7.43;;;22.60;99.90;;;;;;6272455;27;84187;-63
2022/09/07 06:49:29;;;;;;;8.18;7.50;;;22.70;99.90;;;;;;6268750;27;84153;-63
2022/09/07 06:52:34;;;;;;;8.00;7.20;;;22.70;99.90;;;;;;6283805;27;83371;-62
2022/09/07 06:55:43;;;;;;;8.07;7.35;;;22.70;99.90;;;;;;6280915;27;82907;-62
2022/09/07 06:58:45;;;;;;;8.07;7.38;;;22.70;99.90;;;;;;6256958;27;84026;-63
2022/09/07 07:01:47;;;;;;;7.63;6.88;;;22.70;99.90;;;;;;6270554;27;85234;-63
2022/09/07 07:04:50;;;;;;;8.38;7.68;;;22.70;99.90;;;;;;6262854;27;84097;-62
2022/09/07 07:07:55;;;;;;;8.07;7.40;;;22.70;99.90;;;;;;6264694;27;83040;-63
2022/09/07 07:11:01;;;;;;;8.63;7.93;;;22.70;99.90;;;;;;6261505;27;82090;-62
2022/09/07 07:14:03;;;;;;;8.82;8.13;;;22.70;99.90;;;;;;6274118;27;84019;-63
2022/09/07 07:17:05;;;;;;;8.18;7.53;;;22.70;99.90;;;;;;6265567;27;84080;-62
2022/09/07 07:20:08;;;;;;;7.95;7.25;;;22.70;99.90;;;;;;6268484;27;84162;-63
2022/09/07 07:23:12;;;;;;;8.52;7.85;;;22.70;99.90;;;;;;6277195;27;83312;-63
2022/09/07 07:26:16;;;;;;;8.50;7.80;;;22.70;99.90;;;;;;6258741;27;84063;-64
2022/09/07 07:29:18;;;;;;;8.07;7.47;;;22.70;99.90;;;;;;6266255;27;84136;-63
2022/09/07 07:32:20;;;;;;;8.23;7.53;;;22.70;99.90;;;;;;6266762;27;84982;-64
2022/09/07 07:35:22;;;;;;;7.93;7.32;;;22.70;99.90;;;;;;6275791;27;84136;-63
2022/09/07 07:38:26;;;;;;;8.32;7.65;;;22.80;99.90;;;;;;6275367;27;84150;-64
2022/09/07 07:41:30;;;;;;;7.93;7.32;;;22.70;99.90;;;;;;6266980;27;84042;-64
2022/09/07 07:44:32;;;;;;;8.45;7.75;;;22.70;99.90;;;;;;6269373;27;83956;-64
2022/09/07 07:47:34;;;;;;;8.48;7.78;;;22.70;99.90;;;;;;6270781;27;84138;-63
2022/09/07 07:50:36;;;;;;;8.23;7.63;;;22.70;99.90;;;;;;6282492;27;84060;-64
2022/09/07 07:53:41;;;;;;;8.25;7.55;;;22.70;99.90;;;;;;6270114;27;83308;-64
2022/09/07 07:56:43;;;;;;;8.30;7.60;;;22.70;99.90;;;;;;6266067;27;84149;-64
2022/09/07 07:59:45;;;;;;;7.13;6.63;;;22.70;99.90;;;;;;6275524;27;84008;-63
2022/09/07 08:02:47;;;;;;;8.10;7.50;;;22.70;99.90;;;;;;6271508;27;84956;-64
2022/09/07 08:05:49;;;;;;;8.30;7.50;;;22.70;99.90;;;;;;6273428;27;84353;-64
2022/09/07 08:08:53;;;;;;;7.78;7.18;;;22.80;99.90;;;;;;6261903;27;84334;-64
2022/09/07 08:11:55;;;;;;;7.55;6.93;;;22.70;99.90;;;;;;6273562;27;83996;-64
2022/09/07 08:14:57;;;;;;;8.18;7.57;;;22.70;99.90;;;;;;6260229;27;83974;-64
2022/09/07 08:17:59;;;;;;;7.78;7.18;;;22.70;99.90;;;;;;6268409;27;84071;-64
2022/09/07 08:21:01;;;;;;;8.05;7.35;;;22.70;99.90;;;;;;6275797;27;84054;-64
2022/09/07 08:24:05;;;;;;;8.00;7.40;;;22.70;99.90;;;;;;6279412;27;83707;-64
2022/09/07 08:27:08;;;;;;;7.63;6.97;;;22.70;99.90;;;;;;6265647;27;84489;-64
2022/09/07 08:30:10;;;;;;;7.68;7.07;;;22.70;99.90;;;;;;6275257;27;84054;-64
2022/09/07 08:33:13;;;;;;;8.00;7.30;;;22.70;99.90;;;;;;6278960;27;85060;-64
2022/09/07 08:36:18;;;;;;;7.70;7.00;;;22.70;99.90;;;;;;6281283;27;84678;-64
2022/09/07 08:39:22;;;;;;;7.85;7.25;;;22.70;99.90;;;;;;6281348;27;84105;-64
2022/09/07 08:42:40;;;;;;;7.95;7.25;;;22.70;99.90;;;;;;6267732;27;82878;-64
2022/09/07 08:45:45;;;;;;;7.40;6.80;;;22.70;99.90;;;;;;6262564;27;84369;-64
2022/09/07 08:48:48;;;;;;;8.00;7.30;;;22.70;99.90;;;;;;6281651;27;84077;-64
2022/09/07 08:51:55;;;;;;;8.25;7.65;;;22.80;99.90;;;;;;6274976;27;83287;-64
2022/09/07 08:55:05;;;;;;;9.55;8.75;;;22.80;99.90;;;;;;6274368;27;83422;-64
2022/09/07 08:58:16;;;;;;;9.18;8.32;;;22.70;99.90;;;;;;6279888;27;84069;-64
2022/09/07 09:01:20;;;;;;;9.65;8.85;;;22.70;99.90;;;;;;6269403;27;83812;-64
2022/09/07 09:04:24;;;;;;;8.90;8.00;;;22.70;99.90;;;;;;6270877;27;86636;-64
2022/09/07 09:07:36;;;;;;;8.25;7.55;;;22.70;99.90;;;;;;6269518;27;84064;-64
2022/09/07 09:10:54;;;;;;;8.57;7.88;;;22.70;99.90;;;;;;6284569;27;84091;-64
2022/09/07 09:14:04;;;;;;;8.90;8.10;;;22.70;99.90;;;;;;6260404;27;84075;-64
2022/09/07 09:17:10;;;;;;;8.18;7.47;;;22.70;99.90;;;;;;6283348;27;84001;-64
2022/09/07 09:20:21;;;;;;;7.93;7.32;;;22.80;99.90;;;;;;6271078;27;84288;-64
2022/09/07 09:23:25;;;;;;;9.63;8.80;;;22.80;99.90;;;;;;6281629;27;84103;-64
2022/09/07 09:26:31;;;;;;;8.20;7.60;;;22.80;99.90;;;;;;6284478;27;83502;-64
2022/09/07 09:29:33;;;;;;;9.00;8.30;;;22.80;99.90;;;;;;6276203;27;83951;-64
2022/09/07 09:32:40;;;;;;;9.10;8.40;;;22.80;99.90;;;;;;6275381;27;84110;-64
2022/09/07 09:35:43;;;;;;;9.35;8.55;;;22.80;99.90;;;;;;6275065;27;83964;-64
2022/09/07 09:38:45;;;;;;;9.98;9.18;;;22.80;99.90;;;;;;6273237;27;84000;-64
2022/09/07 09:41:48;;;;;;;9.90;9.10;;;22.80;99.90;;;;;;6266827;27;84354;-64
2022/09/07 09:44:51;;;;;;;9.02;8.32;;;22.80;99.90;;;;;;6263691;27;84201;-64
2022/09/07 09:47:54;;;;;;;8.10;7.50;;;22.80;99.90;;;;;;6269073;27;84353;-64
2022/09/07 09:50:58;;;;;;;8.45;7.72;;;22.70;99.90;;;;;;6272793;27;85223;-64
2022/09/07 09:54:06;;;;;;;8.57;7.88;;;22.80;99.90;;;;;;6272638;27;84205;-64
2022/09/07 09:57:14;;;;;;;9.50;8.75;;;22.80;99.90;;;;;;6270931;27;84722;-64
2022/09/07 10:00:19;;;;;;;9.65;8.85;;;22.80;99.90;;;;;;6276479;27;83920;-64
2022/09/07 10:03:21;;;;;;;9.20;8.40;;;22.80;99.90;;;;;;6272048;27;83901;-64
2022/09/07 10:06:23;;;;;;;9.48;8.68;;;22.90;99.90;;;;;;6259377;27;83867;-64
2022/09/07 10:09:30;;;;;;;9.35;8.55;;;22.80;99.90;;;;;;6259256;27;84019;-64
2022/09/07 10:12:35;;;;;;;9.15;8.43;;;22.80;99.90;;;;;;6260012;27;84240;-64
2022/09/07 10:15:37;;;;;;;10.82;9.82;;;22.80;99.90;;;;;;6270973;27;84333;-64
2022/09/07 10:18:40;;;;;;;9.85;9.02;;;22.80;99.90;;;;;;6261049;27;84061;-64
2022/09/07 10:21:44;;;;;;;9.27;8.48;;;22.90;99.90;;;;;;6267356;27;84019;-64
2022/09/07 10:24:46;;;;;;;8.45;7.80;;;22.90;99.90;;;;;;6271721;27;84213;-64
2022/09/07 10:28:01;;;;;;;8.38;7.68;;;22.80;99.90;;;;;;6274531;27;83665;-64
2022/09/07 10:31:12;;;;;;;8.70;7.88;;;22.80;99.90;;;;;;6273475;27;84077;-64
2022/09/07 10:34:22;;;;;;;9.70;8.80;;;22.80;99.90;;;;;;6274338;27;84051;-64
2022/09/07 10:37:36;;;;;;;9.20;8.50;;;22.90;99.90;;;;;;6258404;27;85085;-64
2022/09/07 10:40:42;;;;;;;9.05;8.27;;;22.80;99.90;;;;;;6262361;27;83974;-64
2022/09/07 10:43:48;;;;;;;8.35;7.72;;;22.90;99.90;;;;;;6280362;27;84100;-64
2022/09/07 10:46:56;;;;;;;8.98;8.18;;;22.90;99.90;;;;;;6263965;27;84334;-64
2022/09/07 10:50:03;;;;;;;8.98;8.18;;;22.90;99.90;;;;;;6271822;27;84159;-64
2022/09/07 10:53:34;;;;;;;8.52;7.80;;;22.90;99.90;;;;;;6272266;27;83989;-64
2022/09/07 10:56:44;;;;;;;8.25;7.65;;;22.90;99.90;;;;;;6267832;27;84178;-64
2022/09/07 10:59:55;;;;;;;8.10;7.45;;;22.90;99.90;;;;;;6269498;27;82134;-64
2022/09/07 11:03:26;;;;;;;7.40;6.80;;;22.90;99.90;;;;;;6283332;27;84255;-64
2022/09/07 11:06:32;;;;;;;9.02;8.23;;;22.90;99.90;;;;;;6264652;27;82929;-64
2022/09/07 11:09:58;;;;;;;8.80;8.10;;;22.90;99.90;;;;;;6258664;27;85557;-64
2022/09/07 11:13:04;;;;;;;9.48;8.13;;;22.90;99.90;;;;;;6275277;27;84471;-64
2022/09/07 11:16:14;;;;;;;8.35;7.75;;;22.90;99.90;;;;;;6269625;27;84059;-64
2022/09/07 11:19:20;;;;;;;8.52;7.72;;;22.90;99.90;;;;;;6281171;27;84460;-64
2022/09/07 11:22:35;;;;;;;8.65;7.90;;;22.90;99.90;;;;;;6272408;27;84260;-64
2022/09/07 11:26:07;;;;;;;8.50;7.80;;;22.90;99.90;;;;;;6269918;27;83954;-64
2022/09/07 11:29:16;;;;;;;8.95;8.00;;;22.90;99.90;;;;;;6273537;27;83266;-64
2022/09/07 11:32:23;;;;;;;7.97;7.35;;;23.00;99.90;;;;;;6273753;27;83012;-64
2022/09/07 11:35:34;;;;;;;8.25;7.45;;;22.90;99.90;;;;;;6273425;27;84326;-64
2022/09/07 11:38:41;;;;;;;7.60;6.97;;;23.00;99.90;;;;;;6262487;27;84088;-64
2022/09/07 11:41:50;;;;;;;7.07;6.57;;;22.90;99.90;;;;;;6274221;27;84954;-65
2022/09/07 11:44:59;;;;;;;7.50;6.90;;;23.00;99.90;;;;;;6263277;27;84068;-64
2022/09/07 11:48:10;;;;;;;7.63;7.00;;;23.00;99.90;;;;;;6272939;27;84462;-64
2022/09/07 11:51:19;;;;;;;7.07;6.47;;;22.90;99.90;;;;;;6271162;27;86062;-64
2022/09/07 11:54:34;;;;;;;7.03;6.53;;;23.00;99.90;;;;;;6282317;27;84265;-64
2022/09/07 11:57:43;;;;;;;6.72;6.22;;;23.00;99.90;;;;;;6276932;27;83970;-64
2022/09/07 12:00:55;;;;;;;6.65;6.15;;;23.00;99.90;;;;;;6281099;27;84039;-64
2022/09/07 12:04:24;;;;;;;7.00;6.40;;;23.00;99.90;;;;;;6278655;27;83444;-64
2022/09/07 12:07:49;;;;;;;6.65;5.93;;;22.90;99.90;;;;;;6282927;27;84083;-64
2022/09/07 12:11:04;;;;;;;6.25;5.65;;;23.00;99.90;;;;;;6273662;27;84297;-65
2022/09/07 12:14:21;;;;;;;6.28;5.72;;;23.00;99.90;;;;;;6284717;27;83812;-64
2022/09/07 12:17:44;;;;;;;6.75;6.15;;;23.00;99.90;;;;;;6261423;27;84008;-64
2022/09/07 12:20:48;;;;;;;6.63;6.03;;;22.90;99.90;;;;;;6268336;27;84070;-64
2022/09/07 12:23:50;;;;;;;6.35;5.85;;;23.00;99.90;;;;;;6263541;27;84102;-64
2022/09/07 12:26:53;;;;;;;6.35;5.85;;;23.00;99.90;;;;;;6273552;27;84086;-64
2022/09/07 12:30:31;;;;;;;6.03;5.53;;;23.00;99.90;;;;;;6268453;27;84112;-64
2022/09/07 12:33:35;;;;;;;6.20;5.70;;;23.00;99.90;;;;;;6256004;27;84204;-64
2022/09/07 12:36:49;;;;;;;5.88;5.38;;;23.00;99.90;;;;;;6284610;27;83446;-64
2022/09/07 12:40:11;;;;;;;5.40;5.00;;;23.00;99.90;;;;;;6259879;27;83990;-64
2022/09/07 12:43:49;;;;;;;5.90;5.40;;;22.90;99.90;;;;;;6260455;27;84243;-64
2022/09/07 12:46:59;;;;;;;5.20;4.68;;;23.00;99.90;;;;;;6260693;27;85060;-64
2022/09/07 12:50:17;;;;;;;4.97;4.57;;;23.00;99.90;;;;;;6271982;27;84369;-64
2022/09/07 12:53:28;;;;;;;6.38;5.07;;;23.00;99.90;;;;;;6273111;27;84030;-65
2022/09/07 12:56:41;;;;;;;5.80;5.32;;;23.00;99.90;;;;;;6273046;27;84034;-64
2022/09/07 12:59:56;;;;;;;4.88;4.47;;;23.00;99.90;;;;;;6273411;27;84346;-64
2022/09/07 13:03:19;;;;;;;4.82;4.40;;;23.00;99.90;;;;;;6265248;27;82818;-64
2022/09/07 13:06:42;;;;;;;4.90;4.40;;;23.00;99.90;;;;;;6275476;27;83003;-64
2022/09/07 13:09:55;;;;;;;5.25;4.85;;;23.00;99.90;;;;;;6275442;27;83343;-64
2022/09/07 13:13:02;;;;;;;6.43;4.68;;;23.00;99.90;;;;;;6279179;27;83996;-65
2022/09/07 13:16:28;;;;;;;4.50;4.10;;;23.00;99.90;;;;;;6282899;27;84132;-64
2022/09/07 13:20:06;;;;;;;4.82;4.43;;;23.00;99.90;;;;;;6271281;27;84920;-64
2022/09/07 13:23:28;;;;;;;4.30;4.00;;;23.00;99.90;;;;;;6240778;27;84011;-64
2022/09/07 13:26:57;;;;;;;4.88;4.15;;;23.00;99.90;;;;;;6280217;27;84407;-65
2022/09/07 13:30:04;;;;;;;4.40;4.00;;;23.00;99.90;;;;;;6269028;27;84272;-64
2022/09/07 13:33:42;;;;;;;4.85;4.35;;;23.00;99.90;;;;;;6274938;27;84052;-65
2022/09/07 13:36:48;;;;;;;4.32;3.70;;;23.00;99.90;;;;;;6271388;27;84080;-64
2022/09/07 13:39:54;;;;;;;4.10;3.80;;;23.00;99.90;;;;;;6259818;27;84013;-64
2022/09/07 13:42:59;;;;;;;4.22;3.83;;;23.00;99.90;;;;;;6259967;27;83357;-64
2022/09/07 13:46:07;;;;;;;4.65;3.97;;;23.00;99.90;;;;;;6272291;27;83995;-64
2022/09/07 13:49:21;;;;;;;4.10;3.80;;;23.00;99.90;;;;;;6258943;27;84067;-64
2022/09/07 13:52:33;;;;;;;3.65;3.35;;;23.00;99.90;;;;;;6258176;27;84959;-65
2022/09/07 13:55:44;;;;;;;3.42;3.13;;;23.00;99.90;;;;;;6278156;27;82919;-64
2022/09/07 13:58:50;;;;;;;4.32;3.25;;;23.00;99.90;;;;;;6281080;27;84091;-64
2022/09/07 14:01:53;;;;;;;4.43;3.40;;;23.00;99.90;;;;;;6269242;27;84069;-64
2022/09/07 14:04:57;;;;;;;4.07;3.60;;;23.00;99.90;;;;;;6270192;27;82956;-64
2022/09/07 14:07:59;;;;;;;4.72;3.38;;;23.00;99.90;;;;;;6263512;27;84070;-64
2022/09/07 14:11:01;;;;;;;4.70;3.95;;;23.00;99.90;;;;;;6257576;27;84015;-64
2022/09/07 14:14:09;;;;;;;5.00;3.88;;;23.00;99.90;;;;;;6272895;27;83391;-65
2022/09/07 14:17:14;;;;;;;4.45;4.05;;;23.00;99.90;;;;;;6283231;27;84107;-64
2022/09/07 14:20:17;;;;;;;4.43;3.58;;;23.00;99.90;;;;;;6272117;27;84364;-64
2022/09/07 14:23:24;;;;;;;3.70;3.40;;;23.00;99.90;;;;;;6270633;27;83817;-64
2022/09/07 14:26:26;;;;;;;3.53;3.22;;;23.00;99.90;;;;;;6271466;27;83553;-65
2022/09/07 14:29:31;;;;;;;3.70;3.40;;;23.00;99.90;;;;;;6262553;27;83686;-64
2022/09/07 14:32:33;;;;;;;3.67;3.38;;;23.00;99.90;;;;;;6259239;27;82826;-64
2022/09/07 14:35:40;;;;;;;3.53;3.22;;;23.00;99.90;;;;;;6271023;27;84404;-64
2022/09/07 14:38:43;;;;;;;3.72;3.30;;;23.00;99.90;;;;;;6261422;27;83937;-65
2022/09/07 14:41:45;;;;;;;4.07;3.70;;;23.00;99.90;;;;;;6272731;27;83913;-65
2022/09/07 14:44:49;;;;;;;3.90;3.35;;;23.00;99.90;;;;;;6281598;27;83315;-64
2022/09/07 14:47:53;;;;;;;3.65;3.08;;;23.00;99.90;;;;;;6268511;27;83102;-65
2022/09/07 14:50:55;;;;;;;3.60;3.30;;;23.00;99.90;;;;;;6260451;27;84075;-65
2022/09/07 14:54:00;;;;;;;3.53;3.22;;;23.00;99.90;;;;;;6275891;27;83774;-65
2022/09/07 14:57:23;;;;;;;5.22;2.88;;;23.00;99.90;;;;;;6269488;27;84390;-65
2022/09/07 15:00:31;;;;;;;3.60;3.30;;;23.10;99.90;;;;;;6272648;27;83953;-64
2022/09/07 15:03:35;;;;;;;3.55;3.25;;;23.00;99.90;;;;;;6273162;27;83924;-65
2022/09/07 15:06:38;;;;;;;5.20;3.50;;;23.00;99.90;;;;;;6279985;27;82907;-65
2022/09/07 15:09:40;;;;;;;3.55;3.13;;;23.00;99.90;;;;;;6272614;27;84642;-64
2022/09/07 15:12:43;;;;;;;4.03;3.28;;;23.00;99.90;;;;;;6271711;27;84351;-65
2022/09/07 15:15:57;;;;;;;3.28;3.00;;;23.00;99.90;;;;;;6263039;27;83306;-65
2022/09/07 15:19:01;;;;;;;3.25;2.95;;;23.10;99.90;;;;;;6272679;27;84045;-65
2022/09/07 15:22:10;;;;;;;3.30;3.00;;;23.10;99.90;;;;;;6267875;27;84109;-64
2022/09/07 15:25:12;;;;;;;3.33;3.03;;;23.00;99.90;;;;;;6264391;27;85038;-64
2022/09/07 15:28:23;;;;;;;4.75;2.83;;;23.00;99.90;;;;;;6274064;27;84178;-64
2022/09/07 15:31:33;;;;;;;3.72;3.08;;;23.10;99.90;;;;;;6282559;27;84142;-64
2022/09/07 15:34:35;;;;;;;3.08;2.70;;;23.10;99.90;;;;;;6275411;27;84060;-64
2022/09/07 15:37:37;;;;;;;3.17;2.88;;;23.00;99.90;;;;;;6280703;27;83201;-64
2022/09/07 15:40:43;;;;;;;4.35;3.13;;;23.00;99.90;;;;;;6284139;27;84047;-64
2022/09/07 15:43:45;;;;;;;5.05;3.20;;;23.10;99.90;;;;;;6269893;27;83990;-64
2022/09/07 15:46:48;;;;;;;4.32;3.45;;;23.00;99.90;;;;;;6283734;27;83337;-65
2022/09/07 15:49:50;;;;;;;5.05;3.40;;;23.10;99.90;;;;;;6285231;27;83967;-64
2022/09/07 15:52:52;;;;;;;3.60;3.05;;;23.10;99.90;;;;;;6261745;27;84022;-65
2022/09/07 15:55:55;;;;;;;3.72;3.10;;;23.10;99.90;;;;;;6273625;27;85898;-65
2022/09/07 15:58:57;;;;;;;3.85;2.92;;;23.10;99.90;;;;;;6273973;27;84044;-65
2022/09/07 16:02:01;;;;;;;4.18;3.20;;;23.10;99.90;;;;;;6275716;27;83990;-64
2022/09/07 16:05:04;;;;;;;4.43;3.58;;;23.10;99.90;;;;;;6261436;27;83212;-65
2022/09/07 16:08:06;;;;;;;5.43;3.88;;;23.10;99.90;;;;;;6270787;27;82725;-65
2022/09/07 16:11:16;;;;;;;4.95;3.47;;;23.10;99.90;;;;;;6274636;27;84538;-64
2022/09/07 16:14:18;;;;;;;4.20;3.80;;;23.10;99.90;;;;;;6281883;27;84168;-64